Aeroporto :
LOGIN :

Iscrizione | Disclaimer

   EN    FR    IT 

 










Sommario :    VFR   VFR Marginale   IFR   IFR Intensivo   IFR Molto Intensivo
Visibilità : 
Base nubi : 
>= 8 km
>= 3000ft
5 / 8 km
1000 / 3000 ft
1500m / 5 km
500 / 1000 ft
800 / 1500m
200 / 500 ft
< 800m
< 200 ft
Simboli :   Temporali  Nebbia  Neve Forte  Precipitazioni Forti  Vento > 20 kt
SIGMETs :   Varie  Temporali  Ghiacco  Turbolenza  Onda orograficha  Ceneri Vulcaniche






- Altitudine del aeroporto : 194 ft
- Codice IATA : LME


LFRM - Le Mans

ULTIMO METAR :
  • 210030Z AUTO VRB02KT CAVOK 03/02 Q1029

METARs OBSOLETI :
  • 210000Z AUTO VRB01KT CAVOK 04/03 Q1029
  • 202330Z AUTO 25004KT CAVOK 05/03 Q1029
  • 202300Z AUTO 25005KT CAVOK 05/03 Q1028
  • 202230Z AUTO 25005KT 220V280 CAVOK 05/04 Q1028
  • 202200Z AUTO 24004KT 210V280 CAVOK 05/04 Q1027

TAF TAF LFRM
Valido dal 20 a 12 ore il 21 a 12 ore UTC


201100Z 2012/2112 21015G25KT 9999 BKN016
PROB40
TEMPO 2012/2016 4500 -RA BKN014
TEMPO 2016/2018 30020G35KT 3000 RA BKN009
BECMG 2018/2020 27007KT SCT040
BECMG 2101/2103 VRB03KT
TEMPO 2103/2107 3000 BR
BECMG 2110/2112 23010KT



MetMap, La meteo Aeronautica in un colpo d'occhio ! - Copyright ORBIFLY Dicembre 2007 - Disclaimer

ORBIFLY MET'MAP TEAM :

Programmazione e sviluppo : Alexandra Zaïnal
Concezione : Baudouin d'Aumeries
Aiuto per la programmazione : Marc-Olivier Méhu
Supporto tecnico e logistico : Manuel Goepfert
Aiuto per la traduzione : Arnaldo La Scala

Contatto : metmap@orbifly.com




FONTI E CREDITI :

   NOAA